This demonstration page uses our WeatherBlox Daily Observations layout. Learn more.

Left ArrowRight Arrow

Hourly Observations for July 20, 2020

Temp ( °F °C ) Dew Point ( °F °C ) Humidity (%) Winds ( mph kmh ) Pressure ( in mb ) Visibility ( mi km ) Precip ( " mm )
12:51 am 00:51 Clear 85 29.4 51 10.6 31 31 SSE 6 9 29.74 1007 10 16.0934 0 0
1:51 am 01:51 Clear 83 28.3 50 10 32 32 E 5 7 29.73 1007 10 16.0934 0 0
2:51 am 02:51 Clear 83 28.3 51 10.6 33 33 E 3 6 29.72 1007 10 16.0934 0 0
3:51 am 03:51 Clear 82 27.8 51 10.6 34 34 E 8 13 29.73 1007 10 16.0934 0 0
4:51 am 04:51 Clear 79 26.1 53 11.7 41 41 SE 7 11 29.75 1008 10 16.0934 0 0
5:51 am 05:51 Sunny 77 25 51 10.6 40 40 E 3 6 29.77 1008 10 16.0934 0 0
6:51 am 06:51 Sunny 81 27.2 52 11.1 37 37 SSW 3 6 29.78 1009 10 16.0934 0 0
7:51 am 07:51 Sunny 82 27.8 55 12.8 40 40 W 6 9 29.8 1009 10 16.0934 0 0
8:51 am 08:51 Sunny 86 30 55 12.8 35 35 SE 6 9 29.8 1009 10 16.0934 0 0
9:51 am 09:51 Partly Cloudy 88 31.1 56 13.3 34 34 SSE 6 9 29.8 1009 10 16.0934 0 0
10:51 am 10:51 Sunny 91 32.8 53 11.7 27 27 SSW 6 9 29.79 1009 10 16.0934 0 0
11:51 am 11:51 Sunny 95 35 45 7.2 18 18 W 12 19 29.75 1007 10 16.0934 0 0
12:51 pm 12:51 Sunny 103 39.4 40 4.4 11 11 NW 16 26 29.71 1006 10 16.0934 0 0
1:51 pm 13:51 Sunny 103 39.4 41 5 12 12 WNW 16 26 29.68 1005 10 16.0934 0 0
2:51 pm 14:51 Sunny 103 39.4 40 4.4 11 11 W 16 26 29.65 1004 10 16.0934 0 0
3:51 pm 15:51 Sunny 104 40 39 3.9 11 11 W 18 30 29.62 1003 10 16.0934 0 0
4:51 pm 16:51 Sunny 104 40 39 3.9 11 11 WNW 23 37 29.6 1002 10 16.0934 0 0
5:51 pm 17:51 Sunny 102 38.9 41 5 12 12 W 20 31 29.59 1002 10 16.0934 0 0
6:51 pm 18:51 Sunny 98 36.7 42 5.6 15 15 WNW 20 31 29.6 1003 10 16.0934 0 0
7:51 pm 19:51 Clear 93 33.9 44 6.7 18 18 WNW 17 28 29.64 1004 10 16.0934 0 0
8:51 pm 20:51 Clear 91 32.8 44 6.7 20 20 NW 14 22 29.66 1004 10 16.0934 0 0
9:51 pm 21:51 Clear 90 32.2 44 6.7 20 20 NW 15 24 29.67 1005 10 16.0934 0 0
10:51 pm 22:51 Clear 89 31.7 43 6.1 20 20 NW 12 19 29.67 1005 10 16.0934 0 0
11:51 pm 23:51 Clear 89 31.7 44 6.7 21 21 NW 12 19 29.67 1005 10 16.0934 0 0

Powered by AerisWeather